Terminal Aerodrome Forecast
Issued by NWS

Home | Current Version | Previous Version | Text Only | Print | Product List | Glossary On
Versions: 1 2 3 4 5 6 7 8 9 10 11 12 13 14 15 16 17 18 19 20 21 22 23 24
674
FTUS46 KSGX 250525
TAFSAN
TAF
KSAN 250525Z 2506/2612 VRB04KT P6SM FEW250
     FM251200 18004KT 3SM BR VCFG SCT003
     FM251600 VRB04KT P6SM FEW005
     FM252100 26008KT P6SM FEW250
     FM260000 VRB04KT P6SM SCT005
     FM260500 VRB04KT 2SM BR VCFG BKN004=

USA.gov is the U.S. government's official web portal to all federal, state and local government web resources and services.